sensor_id;sensor_type;location;lat;lon;timestamp;temperature;humidity
23079;DHT22;11707;50.830;4.364;2022-10-30T00:00:27;19.70;99.90
23079;DHT22;11707;50.830;4.364;2022-10-30T00:02:52;19.80;99.90
23079;DHT22;11707;50.830;4.364;2022-10-30T00:05:18;19.80;99.90
23079;DHT22;11707;50.830;4.364;2022-10-30T00:07:46;19.70;99.90
23079;DHT22;11707;50.830;4.364;2022-10-30T00:10:12;19.70;99.90
23079;DHT22;11707;50.830;4.364;2022-10-30T00:12:38;19.70;99.90
23079;DHT22;11707;50.830;4.364;2022-10-30T00:15:04;19.60;99.90
23079;DHT22;11707;50.830;4.364;2022-10-30T00:17:30;19.70;99.90
23079;DHT22;11707;50.830;4.364;2022-10-30T00:19:56;19.40;99.90
23079;DHT22;11707;50.830;4.364;2022-10-30T00:22:21;19.30;99.90
23079;DHT22;11707;50.830;4.364;2022-10-30T00:24:47;19.10;99.90
23079;DHT22;11707;50.830;4.364;2022-10-30T00:27:13;18.90;99.90
23079;DHT22;11707;50.830;4.364;2022-10-30T00:29:39;18.80;99.90
23079;DHT22;11707;50.830;4.364;2022-10-30T00:32:05;18.80;99.90
23079;DHT22;11707;50.830;4.364;2022-10-30T00:34:30;18.70;99.90
23079;DHT22;11707;50.830;4.364;2022-10-30T00:36:56;18.60;99.90
23079;DHT22;11707;50.830;4.364;2022-10-30T00:39:21;18.70;99.90
23079;DHT22;11707;50.830;4.364;2022-10-30T00:41:47;18.80;99.90
23079;DHT22;11707;50.830;4.364;2022-10-30T00:46:59;18.90;99.90
23079;DHT22;11707;50.830;4.364;2022-10-30T00:49:32;18.90;99.90
23079;DHT22;11707;50.830;4.364;2022-10-30T00:52:00;18.80;99.90
23079;DHT22;11707;50.830;4.364;2022-10-30T00:54:28;18.80;99.90
23079;DHT22;11707;50.830;4.364;2022-10-30T00:56:54;18.70;99.90
23079;DHT22;11707;50.830;4.364;2022-10-30T00:59:24;18.60;99.90
23079;DHT22;11707;50.830;4.364;2022-10-30T01:01:52;18.50;99.90
23079;DHT22;11707;50.830;4.364;2022-10-30T01:04:19;18.40;99.90
23079;DHT22;11707;50.830;4.364;2022-10-30T01:06:47;18.50;99.90
23079;DHT22;11707;50.830;4.364;2022-10-30T01:09:17;18.50;99.90
23079;DHT22;11707;50.830;4.364;2022-10-30T01:11:43;18.40;99.90
23079;DHT22;11707;50.830;4.364;2022-10-30T01:14:11;18.40;99.90
23079;DHT22;11707;50.830;4.364;2022-10-30T01:25:04;18.20;99.90
23079;DHT22;11707;50.830;4.364;2022-10-30T01:27:57;18.20;99.90
23079;DHT22;11707;50.830;4.364;2022-10-30T01:33:15;18.20;99.90
23079;DHT22;11707;50.830;4.364;2022-10-30T01:36:25;18.30;99.90
23079;DHT22;11707;50.830;4.364;2022-10-30T01:38:57;18.50;99.90
23079;DHT22;11707;50.830;4.364;2022-10-30T01:41:24;18.60;99.90
23079;DHT22;11707;50.830;4.364;2022-10-30T01:43:53;18.70;99.90
23079;DHT22;11707;50.830;4.364;2022-10-30T01:46:44;18.70;99.90
23079;DHT22;11707;50.830;4.364;2022-10-30T01:52:17;18.50;99.90
23079;DHT22;11707;50.830;4.364;2022-10-30T01:55:03;18.40;99.90
23079;DHT22;11707;50.830;4.364;2022-10-30T01:57:39;18.10;99.90
23079;DHT22;11707;50.830;4.364;2022-10-30T02:00:09;17.80;99.90
23079;DHT22;11707;50.830;4.364;2022-10-30T02:02:35;17.60;99.90
23079;DHT22;11707;50.830;4.364;2022-10-30T02:05:02;17.60;99.90
23079;DHT22;11707;50.830;4.364;2022-10-30T02:07:29;17.50;99.90
23079;DHT22;11707;50.830;4.364;2022-10-30T02:09:55;17.60;99.90
23079;DHT22;11707;50.830;4.364;2022-10-30T02:12:21;17.50;99.90
23079;DHT22;11707;50.830;4.364;2022-10-30T02:14:50;17.40;99.90
23079;DHT22;11707;50.830;4.364;2022-10-30T02:17:19;17.40;99.90
23079;DHT22;11707;50.830;4.364;2022-10-30T02:19:45;17.40;99.90
23079;DHT22;11707;50.830;4.364;2022-10-30T02:22:11;17.40;99.90
23079;DHT22;11707;50.830;4.364;2022-10-30T02:24:36;17.40;99.90
23079;DHT22;11707;50.830;4.364;2022-10-30T02:27:03;17.40;99.90
23079;DHT22;11707;50.830;4.364;2022-10-30T02:29:29;17.30;99.90
23079;DHT22;11707;50.830;4.364;2022-10-30T02:31:54;17.30;99.90
23079;DHT22;11707;50.830;4.364;2022-10-30T02:34:20;17.30;99.90
23079;DHT22;11707;50.830;4.364;2022-10-30T02:36:46;17.30;99.90
23079;DHT22;11707;50.830;4.364;2022-10-30T02:39:12;17.30;99.90
23079;DHT22;11707;50.830;4.364;2022-10-30T02:41:37;17.30;99.90
23079;DHT22;11707;50.830;4.364;2022-10-30T02:44:04;17.30;99.90
23079;DHT22;11707;50.830;4.364;2022-10-30T02:46:31;17.40;99.90
23079;DHT22;11707;50.830;4.364;2022-10-30T02:48:56;17.40;99.90
23079;DHT22;11707;50.830;4.364;2022-10-30T02:51:22;17.40;99.90
23079;DHT22;11707;50.830;4.364;2022-10-30T02:53:48;17.30;99.90
23079;DHT22;11707;50.830;4.364;2022-10-30T02:56:14;17.40;99.90
23079;DHT22;11707;50.830;4.364;2022-10-30T02:58:41;17.40;99.90
23079;DHT22;11707;50.830;4.364;2022-10-30T03:01:10;17.50;99.90
23079;DHT22;11707;50.830;4.364;2022-10-30T03:03:37;17.70;99.90
23079;DHT22;11707;50.830;4.364;2022-10-30T03:06:04;17.80;99.90
23079;DHT22;11707;50.830;4.364;2022-10-30T03:08:30;17.80;99.90
23079;DHT22;11707;50.830;4.364;2022-10-30T03:11:18;17.80;99.90
23079;DHT22;11707;50.830;4.364;2022-10-30T03:13:46;17.90;99.90
23079;DHT22;11707;50.830;4.364;2022-10-30T03:16:17;18.00;99.90
23079;DHT22;11707;50.830;4.364;2022-10-30T03:18:43;18.00;99.90
23079;DHT22;11707;50.830;4.364;2022-10-30T03:21:14;18.10;99.90
23079;DHT22;11707;50.830;4.364;2022-10-30T03:23:40;18.10;99.90
23079;DHT22;11707;50.830;4.364;2022-10-30T03:26:05;17.90;99.90
23079;DHT22;11707;50.830;4.364;2022-10-30T03:28:31;17.80;99.90
23079;DHT22;11707;50.830;4.364;2022-10-30T03:30:59;17.90;99.90
23079;DHT22;11707;50.830;4.364;2022-10-30T03:33:25;17.70;99.90
23079;DHT22;11707;50.830;4.364;2022-10-30T03:35:51;17.70;99.90
23079;DHT22;11707;50.830;4.364;2022-10-30T03:38:17;17.50;99.90
23079;DHT22;11707;50.830;4.364;2022-10-30T03:40:42;17.40;99.90
23079;DHT22;11707;50.830;4.364;2022-10-30T03:43:08;17.30;99.90
23079;DHT22;11707;50.830;4.364;2022-10-30T03:45:35;17.30;99.90
23079;DHT22;11707;50.830;4.364;2022-10-30T03:48:02;17.40;99.90
23079;DHT22;11707;50.830;4.364;2022-10-30T03:50:28;17.40;99.90
23079;DHT22;11707;50.830;4.364;2022-10-30T03:52:55;17.30;99.90
23079;DHT22;11707;50.830;4.364;2022-10-30T03:55:21;17.30;99.90
23079;DHT22;11707;50.830;4.364;2022-10-30T03:57:47;17.10;99.90
23079;DHT22;11707;50.830;4.364;2022-10-30T04:00:14;17.10;99.90
23079;DHT22;11707;50.830;4.364;2022-10-30T04:02:44;17.10;99.90
23079;DHT22;11707;50.830;4.364;2022-10-30T04:05:10;17.00;99.90
23079;DHT22;11707;50.830;4.364;2022-10-30T04:07:36;17.00;99.90
23079;DHT22;11707;50.830;4.364;2022-10-30T04:10:02;17.10;99.90
23079;DHT22;11707;50.830;4.364;2022-10-30T04:12:27;16.90;99.90
23079;DHT22;11707;50.830;4.364;2022-10-30T04:14:53;16.90;99.90
23079;DHT22;11707;50.830;4.364;2022-10-30T04:17:19;16.90;99.90
23079;DHT22;11707;50.830;4.364;2022-10-30T04:19:45;16.90;99.90
23079;DHT22;11707;50.830;4.364;2022-10-30T04:22:10;16.90;99.90
23079;DHT22;11707;50.830;4.364;2022-10-30T04:24:36;16.90;99.90
23079;DHT22;11707;50.830;4.364;2022-10-30T04:27:04;17.00;99.90
23079;DHT22;11707;50.830;4.364;2022-10-30T04:29:29;17.00;99.90
23079;DHT22;11707;50.830;4.364;2022-10-30T04:31:55;16.90;99.90
23079;DHT22;11707;50.830;4.364;2022-10-30T04:34:21;16.70;99.90
23079;DHT22;11707;50.830;4.364;2022-10-30T04:36:46;16.70;99.90
23079;DHT22;11707;50.830;4.364;2022-10-30T04:39:21;16.70;99.90
23079;DHT22;11707;50.830;4.364;2022-10-30T04:41:47;16.70;99.90
23079;DHT22;11707;50.830;4.364;2022-10-30T04:44:13;16.60;99.90
23079;DHT22;11707;50.830;4.364;2022-10-30T04:46:38;16.50;99.90
23079;DHT22;11707;50.830;4.364;2022-10-30T04:49:04;16.50;99.90
23079;DHT22;11707;50.830;4.364;2022-10-30T04:51:30;16.60;99.90
23079;DHT22;11707;50.830;4.364;2022-10-30T04:53:55;16.60;99.90
23079;DHT22;11707;50.830;4.364;2022-10-30T04:56:23;16.70;99.90
23079;DHT22;11707;50.830;4.364;2022-10-30T04:58:49;16.60;99.90
23079;DHT22;11707;50.830;4.364;2022-10-30T05:01:15;16.60;99.90
23079;DHT22;11707;50.830;4.364;2022-10-30T05:03:40;16.70;99.90
23079;DHT22;11707;50.830;4.364;2022-10-30T05:06:14;16.70;99.90
23079;DHT22;11707;50.830;4.364;2022-10-30T05:08:41;16.80;99.90
23079;DHT22;11707;50.830;4.364;2022-10-30T05:11:07;16.70;99.90
23079;DHT22;11707;50.830;4.364;2022-10-30T05:13:33;16.70;99.90
23079;DHT22;11707;50.830;4.364;2022-10-30T05:15:58;16.60;99.90
23079;DHT22;11707;50.830;4.364;2022-10-30T05:18:24;16.70;99.90
23079;DHT22;11707;50.830;4.364;2022-10-30T05:20:50;16.80;99.90
23079;DHT22;11707;50.830;4.364;2022-10-30T05:23:15;16.90;99.90
23079;DHT22;11707;50.830;4.364;2022-10-30T05:25:41;17.00;99.90
23079;DHT22;11707;50.830;4.364;2022-10-30T05:28:07;17.10;99.90
23079;DHT22;11707;50.830;4.364;2022-10-30T05:30:34;17.10;99.90
23079;DHT22;11707;50.830;4.364;2022-10-30T05:33:01;17.20;99.90
23079;DHT22;11707;50.830;4.364;2022-10-30T05:35:28;17.10;99.90
23079;DHT22;11707;50.830;4.364;2022-10-30T05:37:57;17.10;99.90
23079;DHT22;11707;50.830;4.364;2022-10-30T05:40:23;17.10;99.90
23079;DHT22;11707;50.830;4.364;2022-10-30T05:42:49;17.20;99.90
23079;DHT22;11707;50.830;4.364;2022-10-30T05:45:15;17.20;99.90
23079;DHT22;11707;50.830;4.364;2022-10-30T05:47:41;17.20;99.90
23079;DHT22;11707;50.830;4.364;2022-10-30T05:50:08;17.20;99.90
23079;DHT22;11707;50.830;4.364;2022-10-30T05:52:33;16.90;99.90
23079;DHT22;11707;50.830;4.364;2022-10-30T05:54:59;16.70;99.90
23079;DHT22;11707;50.830;4.364;2022-10-30T05:57:27;16.60;99.90
23079;DHT22;11707;50.830;4.364;2022-10-30T05:59:54;16.60;99.90
23079;DHT22;11707;50.830;4.364;2022-10-30T06:02:20;16.40;99.90
23079;DHT22;11707;50.830;4.364;2022-10-30T06:04:46;16.40;99.90
23079;DHT22;11707;50.830;4.364;2022-10-30T06:07:11;16.40;99.90
23079;DHT22;11707;50.830;4.364;2022-10-30T06:09:37;16.50;99.90
23079;DHT22;11707;50.830;4.364;2022-10-30T06:12:03;16.40;99.90
23079;DHT22;11707;50.830;4.364;2022-10-30T06:14:29;16.20;99.90
23079;DHT22;11707;50.830;4.364;2022-10-30T06:16:54;16.20;99.90
23079;DHT22;11707;50.830;4.364;2022-10-30T06:19:20;16.30;99.90
23079;DHT22;11707;50.830;4.364;2022-10-30T06:21:46;16.30;99.90
23079;DHT22;11707;50.830;4.364;2022-10-30T06:24:12;16.30;99.90
23079;DHT22;11707;50.830;4.364;2022-10-30T06:26:38;16.50;99.90
23079;DHT22;11707;50.830;4.364;2022-10-30T06:29:04;16.60;99.90
23079;DHT22;11707;50.830;4.364;2022-10-30T06:31:30;16.50;99.90
23079;DHT22;11707;50.830;4.364;2022-10-30T06:33:56;16.60;99.90
23079;DHT22;11707;50.830;4.364;2022-10-30T06:36:21;16.70;99.90
23079;DHT22;11707;50.830;4.364;2022-10-30T06:38:47;16.70;99.90
23079;DHT22;11707;50.830;4.364;2022-10-30T06:41:13;16.50;99.90
23079;DHT22;11707;50.830;4.364;2022-10-30T06:43:39;16.40;99.90
23079;DHT22;11707;50.830;4.364;2022-10-30T06:46:04;16.50;99.90
23079;DHT22;11707;50.830;4.364;2022-10-30T06:48:30;16.80;99.90
23079;DHT22;11707;50.830;4.364;2022-10-30T06:50:57;16.80;99.90
23079;DHT22;11707;50.830;4.364;2022-10-30T06:53:23;16.80;99.90
23079;DHT22;11707;50.830;4.364;2022-10-30T06:56:09;16.70;99.90
23079;DHT22;11707;50.830;4.364;2022-10-30T06:58:35;16.70;99.90
23079;DHT22;11707;50.830;4.364;2022-10-30T07:01:06;16.90;99.90
23079;DHT22;11707;50.830;4.364;2022-10-30T07:03:33;16.80;99.90
23079;DHT22;11707;50.830;4.364;2022-10-30T07:05:59;16.80;99.90
23079;DHT22;11707;50.830;4.364;2022-10-30T07:08:25;16.80;99.90
23079;DHT22;11707;50.830;4.364;2022-10-30T07:10:51;16.80;99.90
23079;DHT22;11707;50.830;4.364;2022-10-30T07:13:17;16.70;99.90
23079;DHT22;11707;50.830;4.364;2022-10-30T07:15:42;16.60;99.90
23079;DHT22;11707;50.830;4.364;2022-10-30T07:18:09;16.80;99.90
23079;DHT22;11707;50.830;4.364;2022-10-30T07:20:35;16.70;99.90
23079;DHT22;11707;50.830;4.364;2022-10-30T07:23:02;16.90;99.90
23079;DHT22;11707;50.830;4.364;2022-10-30T07:25:28;17.10;99.90
23079;DHT22;11707;50.830;4.364;2022-10-30T07:27:55;17.30;99.90
23079;DHT22;11707;50.830;4.364;2022-10-30T07:30:23;17.40;99.90
23079;DHT22;11707;50.830;4.364;2022-10-30T07:32:59;17.40;99.90
23079;DHT22;11707;50.830;4.364;2022-10-30T07:35:25;17.40;99.90
23079;DHT22;11707;50.830;4.364;2022-10-30T07:37:50;17.30;99.90
23079;DHT22;11707;50.830;4.364;2022-10-30T07:40:16;17.40;99.90
23079;DHT22;11707;50.830;4.364;2022-10-30T07:42:42;17.50;99.90
23079;DHT22;11707;50.830;4.364;2022-10-30T07:45:08;17.60;99.90
23079;DHT22;11707;50.830;4.364;2022-10-30T07:47:41;17.70;99.90
23079;DHT22;11707;50.830;4.364;2022-10-30T07:50:08;17.70;99.90
23079;DHT22;11707;50.830;4.364;2022-10-30T07:52:33;17.70;99.90
23079;DHT22;11707;50.830;4.364;2022-10-30T07:54:59;17.70;99.90
23079;DHT22;11707;50.830;4.364;2022-10-30T07:57:25;17.70;99.90
23079;DHT22;11707;50.830;4.364;2022-10-30T07:59:51;17.80;99.90
23079;DHT22;11707;50.830;4.364;2022-10-30T08:02:16;17.90;99.90
23079;DHT22;11707;50.830;4.364;2022-10-30T08:04:42;18.00;99.90
23079;DHT22;11707;50.830;4.364;2022-10-30T08:07:08;18.00;99.90
23079;DHT22;11707;50.830;4.364;2022-10-30T08:09:33;18.10;99.90
23079;DHT22;11707;50.830;4.364;2022-10-30T08:11:59;18.10;99.90
23079;DHT22;11707;50.830;4.364;2022-10-30T08:14:25;17.70;99.90
23079;DHT22;11707;50.830;4.364;2022-10-30T08:16:51;17.80;99.90
23079;DHT22;11707;50.830;4.364;2022-10-30T08:19:16;17.90;99.90
23079;DHT22;11707;50.830;4.364;2022-10-30T08:21:42;17.90;99.90
23079;DHT22;11707;50.830;4.364;2022-10-30T08:24:08;18.00;99.90
23079;DHT22;11707;50.830;4.364;2022-10-30T08:26:33;18.10;99.90
23079;DHT22;11707;50.830;4.364;2022-10-30T08:29:00;18.30;99.90
23079;DHT22;11707;50.830;4.364;2022-10-30T08:31:26;18.50;99.90
23079;DHT22;11707;50.830;4.364;2022-10-30T08:33:51;18.40;99.90
23079;DHT22;11707;50.830;4.364;2022-10-30T08:36:17;17.90;99.90
23079;DHT22;11707;50.830;4.364;2022-10-30T08:38:43;17.70;99.90
23079;DHT22;11707;50.830;4.364;2022-10-30T08:41:08;17.70;99.90
23079;DHT22;11707;50.830;4.364;2022-10-30T08:43:34;18.00;99.90
23079;DHT22;11707;50.830;4.364;2022-10-30T08:46:00;18.10;99.90
23079;DHT22;11707;50.830;4.364;2022-10-30T08:48:26;17.90;99.90
23079;DHT22;11707;50.830;4.364;2022-10-30T08:50:52;17.90;99.90
23079;DHT22;11707;50.830;4.364;2022-10-30T08:53:19;17.80;99.90
23079;DHT22;11707;50.830;4.364;2022-10-30T08:55:44;17.90;99.90
23079;DHT22;11707;50.830;4.364;2022-10-30T08:58:10;18.00;99.90
23079;DHT22;11707;50.830;4.364;2022-10-30T09:00:36;17.90;99.90
23079;DHT22;11707;50.830;4.364;2022-10-30T09:03:02;17.50;99.90
23079;DHT22;11707;50.830;4.364;2022-10-30T09:05:28;17.30;99.90
23079;DHT22;11707;50.830;4.364;2022-10-30T09:07:57;17.60;99.90
23079;DHT22;11707;50.830;4.364;2022-10-30T09:10:26;17.80;99.90
23079;DHT22;11707;50.830;4.364;2022-10-30T09:12:56;17.70;99.90
23079;DHT22;11707;50.830;4.364;2022-10-30T09:15:22;17.80;99.90
23079;DHT22;11707;50.830;4.364;2022-10-30T09:17:56;17.90;99.90
23079;DHT22;11707;50.830;4.364;2022-10-30T09:20:23;18.00;99.90
23079;DHT22;11707;50.830;4.364;2022-10-30T09:22:49;18.00;99.90
23079;DHT22;11707;50.830;4.364;2022-10-30T09:25:16;17.80;99.90
23079;DHT22;11707;50.830;4.364;2022-10-30T09:27:41;17.80;99.90
23079;DHT22;11707;50.830;4.364;2022-10-30T09:30:08;17.90;99.90
23079;DHT22;11707;50.830;4.364;2022-10-30T09:32:34;18.20;99.90
23079;DHT22;11707;50.830;4.364;2022-10-30T09:34:59;18.50;99.90
23079;DHT22;11707;50.830;4.364;2022-10-30T09:37:25;18.70;99.90
23079;DHT22;11707;50.830;4.364;2022-10-30T09:39:51;19.00;99.90
23079;DHT22;11707;50.830;4.364;2022-10-30T09:59:47;20.00;99.90
23079;DHT22;11707;50.830;4.364;2022-10-30T10:04:47;19.50;99.90
23079;DHT22;11707;50.830;4.364;2022-10-30T10:10:44;19.70;99.90
23079;DHT22;11707;50.830;4.364;2022-10-30T10:16:24;19.90;99.90
23079;DHT22;11707;50.830;4.364;2022-10-30T10:19:19;20.00;99.90
23079;DHT22;11707;50.830;4.364;2022-10-30T10:21:52;20.00;99.90
23079;DHT22;11707;50.830;4.364;2022-10-30T10:24:26;19.90;99.90
23079;DHT22;11707;50.830;4.364;2022-10-30T10:37:55;19.60;99.90
23079;DHT22;11707;50.830;4.364;2022-10-30T10:51:41;19.40;99.90
23079;DHT22;11707;50.830;4.364;2022-10-30T10:54:18;19.40;99.90
23079;DHT22;11707;50.830;4.364;2022-10-30T10:56:48;19.40;99.90
23079;DHT22;11707;50.830;4.364;2022-10-30T10:59:37;19.50;99.90
23079;DHT22;11707;50.830;4.364;2022-10-30T11:07:22;19.60;99.90
23079;DHT22;11707;50.830;4.364;2022-10-30T11:09:55;19.60;99.90
23079;DHT22;11707;50.830;4.364;2022-10-30T11:12:28;19.40;99.90
23079;DHT22;11707;50.830;4.364;2022-10-30T11:14:56;19.40;99.90
23079;DHT22;11707;50.830;4.364;2022-10-30T11:17:38;19.40;99.90
23079;DHT22;11707;50.830;4.364;2022-10-30T11:22:58;19.50;99.90
23079;DHT22;11707;50.830;4.364;2022-10-30T11:25:25;19.50;99.90
23079;DHT22;11707;50.830;4.364;2022-10-30T11:27:59;19.50;99.90
23079;DHT22;11707;50.830;4.364;2022-10-30T11:30:27;19.40;99.90
23079;DHT22;11707;50.830;4.364;2022-10-30T11:32:57;19.30;99.90
23079;DHT22;11707;50.830;4.364;2022-10-30T11:35:24;19.50;99.90
23079;DHT22;11707;50.830;4.364;2022-10-30T11:38:05;19.50;99.90
23079;DHT22;11707;50.830;4.364;2022-10-30T11:40:36;19.30;99.90
23079;DHT22;11707;50.830;4.364;2022-10-30T11:43:03;19.20;99.90
23079;DHT22;11707;50.830;4.364;2022-10-30T11:45:40;19.20;99.90
23079;DHT22;11707;50.830;4.364;2022-10-30T11:48:28;19.30;99.90
23079;DHT22;11707;50.830;4.364;2022-10-30T11:50:58;19.50;99.90
23079;DHT22;11707;50.830;4.364;2022-10-30T11:53:41;19.50;99.90
23079;DHT22;11707;50.830;4.364;2022-10-30T11:56:18;19.60;99.90
23079;DHT22;11707;50.830;4.364;2022-10-30T11:58:50;19.60;99.90
23079;DHT22;11707;50.830;4.364;2022-10-30T12:03:50;19.60;99.90
23079;DHT22;11707;50.830;4.364;2022-10-30T12:09:20;19.80;99.90
23079;DHT22;11707;50.830;4.364;2022-10-30T12:11:46;20.20;99.90
23079;DHT22;11707;50.830;4.364;2022-10-30T12:14:23;20.20;99.90
23079;DHT22;11707;50.830;4.364;2022-10-30T12:16:53;20.00;99.90
23079;DHT22;11707;50.830;4.364;2022-10-30T12:19:22;19.90;99.90
23079;DHT22;11707;50.830;4.364;2022-10-30T12:21:53;20.20;99.90
23079;DHT22;11707;50.830;4.364;2022-10-30T12:24:34;20.20;99.90
23079;DHT22;11707;50.830;4.364;2022-10-30T12:27:03;20.30;99.90
23079;DHT22;11707;50.830;4.364;2022-10-30T12:30:06;20.40;99.90
23079;DHT22;11707;50.830;4.364;2022-10-30T12:32:57;20.40;99.90
23079;DHT22;11707;50.830;4.364;2022-10-30T12:38:24;20.60;99.90
23079;DHT22;11707;50.830;4.364;2022-10-30T12:43:25;21.00;99.90
23079;DHT22;11707;50.830;4.364;2022-10-30T12:45:56;20.90;99.90
23079;DHT22;11707;50.830;4.364;2022-10-30T12:48:32;20.90;99.90
23079;DHT22;11707;50.830;4.364;2022-10-30T12:57:05;21.00;99.90
23079;DHT22;11707;50.830;4.364;2022-10-30T13:05:04;20.40;99.90
23079;DHT22;11707;50.830;4.364;2022-10-30T13:07:37;20.60;99.90
23079;DHT22;11707;50.830;4.364;2022-10-30T13:10:39;20.40;99.90
23079;DHT22;11707;50.830;4.364;2022-10-30T13:13:02;20.60;99.90
23079;DHT22;11707;50.830;4.364;2022-10-30T13:15:35;20.60;99.90
23079;DHT22;11707;50.830;4.364;2022-10-30T13:18:14;20.70;99.90
23079;DHT22;11707;50.830;4.364;2022-10-30T13:20:42;20.90;99.90
23079;DHT22;11707;50.830;4.364;2022-10-30T13:23:18;20.90;99.90
23079;DHT22;11707;50.830;4.364;2022-10-30T13:26:01;20.80;99.90
23079;DHT22;11707;50.830;4.364;2022-10-30T13:28:42;20.90;99.90
23079;DHT22;11707;50.830;4.364;2022-10-30T13:31:30;20.90;99.90
23079;DHT22;11707;50.830;4.364;2022-10-30T13:34:46;21.40;99.90
23079;DHT22;11707;50.830;4.364;2022-10-30T13:37:12;22.20;99.90
23079;DHT22;11707;50.830;4.364;2022-10-30T13:51:31;25.30;99.90
23079;DHT22;11707;50.830;4.364;2022-10-30T13:56:39;26.00;99.90
23079;DHT22;11707;50.830;4.364;2022-10-30T14:02:20;26.20;99.90
23079;DHT22;11707;50.830;4.364;2022-10-30T14:13:20;22.70;99.90
23079;DHT22;11707;50.830;4.364;2022-10-30T14:18:44;21.70;99.90
23079;DHT22;11707;50.830;4.364;2022-10-30T14:21:39;21.30;99.90
23079;DHT22;11707;50.830;4.364;2022-10-30T14:39:49;19.80;99.90
23079;DHT22;11707;50.830;4.364;2022-10-30T14:42:49;19.70;99.90
23079;DHT22;11707;50.830;4.364;2022-10-30T14:45:25;19.60;99.90
23079;DHT22;11707;50.830;4.364;2022-10-30T14:48:17;19.60;99.90
23079;DHT22;11707;50.830;4.364;2022-10-30T14:51:09;19.60;99.90
23079;DHT22;11707;50.830;4.364;2022-10-30T14:58:41;19.10;99.90
23079;DHT22;11707;50.830;4.364;2022-10-30T15:01:27;19.10;99.90
23079;DHT22;11707;50.830;4.364;2022-10-30T15:04:11;19.00;99.90
23079;DHT22;11707;50.830;4.364;2022-10-30T15:06:50;18.90;99.90
23079;DHT22;11707;50.830;4.364;2022-10-30T15:09:50;18.90;99.90
23079;DHT22;11707;50.830;4.364;2022-10-30T15:15:08;18.70;99.90
23079;DHT22;11707;50.830;4.364;2022-10-30T15:17:41;18.60;99.90
23079;DHT22;11707;50.830;4.364;2022-10-30T15:20:20;18.60;99.90
23079;DHT22;11707;50.830;4.364;2022-10-30T15:23:05;18.70;99.90
23079;DHT22;11707;50.830;4.364;2022-10-30T15:25:45;18.70;99.90
23079;DHT22;11707;50.830;4.364;2022-10-30T15:28:20;18.60;99.90
23079;DHT22;11707;50.830;4.364;2022-10-30T15:31:24;18.50;99.90
23079;DHT22;11707;50.830;4.364;2022-10-30T15:33:51;18.40;99.90
23079;DHT22;11707;50.830;4.364;2022-10-30T15:36:39;18.30;99.90
23079;DHT22;11707;50.830;4.364;2022-10-30T15:39:09;18.30;99.90
23079;DHT22;11707;50.830;4.364;2022-10-30T15:41:47;18.40;99.90
23079;DHT22;11707;50.830;4.364;2022-10-30T15:44:29;18.40;99.90
23079;DHT22;11707;50.830;4.364;2022-10-30T15:46:57;18.40;99.90
23079;DHT22;11707;50.830;4.364;2022-10-30T15:49:36;18.40;99.90
23079;DHT22;11707;50.830;4.364;2022-10-30T15:52:32;18.30;99.90
23079;DHT22;11707;50.830;4.364;2022-10-30T15:55:05;18.30;99.90
23079;DHT22;11707;50.830;4.364;2022-10-30T15:57:36;18.40;99.90
23079;DHT22;11707;50.830;4.364;2022-10-30T16:00:06;18.40;99.90
23079;DHT22;11707;50.830;4.364;2022-10-30T16:02:32;18.20;99.90
23079;DHT22;11707;50.830;4.364;2022-10-30T16:04:58;18.30;99.90
23079;DHT22;11707;50.830;4.364;2022-10-30T16:07:25;18.30;99.90
23079;DHT22;11707;50.830;4.364;2022-10-30T16:09:58;18.40;99.90
23079;DHT22;11707;50.830;4.364;2022-10-30T16:12:27;18.30;99.90
23079;DHT22;11707;50.830;4.364;2022-10-30T16:14:54;18.30;99.90
23079;DHT22;11707;50.830;4.364;2022-10-30T16:17:20;18.30;99.90
23079;DHT22;11707;50.830;4.364;2022-10-30T16:19:49;18.40;99.90
23079;DHT22;11707;50.830;4.364;2022-10-30T16:22:27;18.50;99.90
23079;DHT22;11707;50.830;4.364;2022-10-30T16:24:55;18.60;99.90
23079;DHT22;11707;50.830;4.364;2022-10-30T16:27:22;18.60;99.90
23079;DHT22;11707;50.830;4.364;2022-10-30T16:29:54;18.50;99.90
23079;DHT22;11707;50.830;4.364;2022-10-30T16:32:24;18.40;99.90
23079;DHT22;11707;50.830;4.364;2022-10-30T16:34:57;18.40;99.90
23079;DHT22;11707;50.830;4.364;2022-10-30T16:37:32;18.40;99.90
23079;DHT22;11707;50.830;4.364;2022-10-30T16:40:02;18.40;99.90
23079;DHT22;11707;50.830;4.364;2022-10-30T16:42:30;18.30;99.90
23079;DHT22;11707;50.830;4.364;2022-10-30T16:47:44;18.00;99.90
23079;DHT22;11707;50.830;4.364;2022-10-30T16:50:14;17.90;99.90
23079;DHT22;11707;50.830;4.364;2022-10-30T16:52:40;17.90;99.90
23079;DHT22;11707;50.830;4.364;2022-10-30T16:55:17;18.00;99.90
23079;DHT22;11707;50.830;4.364;2022-10-30T16:57:45;17.90;99.90
23079;DHT22;11707;50.830;4.364;2022-10-30T17:00:27;17.90;99.90
23079;DHT22;11707;50.830;4.364;2022-10-30T17:02:54;17.90;99.90
23079;DHT22;11707;50.830;4.364;2022-10-30T17:05:31;17.90;99.90
23079;DHT22;11707;50.830;4.364;2022-10-30T17:15:54;17.60;99.90
23079;DHT22;11707;50.830;4.364;2022-10-30T17:18:29;17.70;99.90
23079;DHT22;11707;50.830;4.364;2022-10-30T17:21:11;17.80;99.90
23079;DHT22;11707;50.830;4.364;2022-10-30T17:23:49;17.60;99.90
23079;DHT22;11707;50.830;4.364;2022-10-30T17:26:16;17.70;99.90
23079;DHT22;11707;50.830;4.364;2022-10-30T17:28:43;17.70;99.90
23079;DHT22;11707;50.830;4.364;2022-10-30T17:31:19;17.80;99.90
23079;DHT22;11707;50.830;4.364;2022-10-30T17:33:46;17.80;99.90
23079;DHT22;11707;50.830;4.364;2022-10-30T17:36:12;17.90;99.90
23079;DHT22;11707;50.830;4.364;2022-10-30T17:38:38;17.90;99.90
23079;DHT22;11707;50.830;4.364;2022-10-30T17:41:04;17.90;99.90
23079;DHT22;11707;50.830;4.364;2022-10-30T17:43:34;17.70;99.90
23079;DHT22;11707;50.830;4.364;2022-10-30T17:46:00;17.50;99.90
23079;DHT22;11707;50.830;4.364;2022-10-30T17:48:27;17.60;99.90
23079;DHT22;11707;50.830;4.364;2022-10-30T17:50:53;17.60;99.90
23079;DHT22;11707;50.830;4.364;2022-10-30T17:53:22;17.60;99.90
23079;DHT22;11707;50.830;4.364;2022-10-30T17:56:00;17.70;99.90
23079;DHT22;11707;50.830;4.364;2022-10-30T17:58:27;17.60;99.90
23079;DHT22;11707;50.830;4.364;2022-10-30T18:00:56;17.40;99.90
23079;DHT22;11707;50.830;4.364;2022-10-30T18:03:21;17.50;99.90
23079;DHT22;11707;50.830;4.364;2022-10-30T18:05:47;17.40;99.90
23079;DHT22;11707;50.830;4.364;2022-10-30T18:08:13;17.40;99.90
23079;DHT22;11707;50.830;4.364;2022-10-30T18:10:39;17.40;99.90
23079;DHT22;11707;50.830;4.364;2022-10-30T18:13:05;17.40;99.90
23079;DHT22;11707;50.830;4.364;2022-10-30T18:15:36;17.40;99.90
23079;DHT22;11707;50.830;4.364;2022-10-30T18:18:04;17.30;99.90
23079;DHT22;11707;50.830;4.364;2022-10-30T18:20:31;17.20;99.90
23079;DHT22;11707;50.830;4.364;2022-10-30T18:22:58;17.10;99.90
23079;DHT22;11707;50.830;4.364;2022-10-30T18:25:31;17.00;99.90